Terminal Aerodrome Forecast
Issued by NWS

Home | Current Version | Previous Version | Text Only | Print | Product List | Glossary On
Versions: 1 2 3 4 5 6 7 8 9 10 11 12 13
000
FTUS41 KBTV 221124
TAFPBG
TAF
KPBG 221124Z 2212/2312 17008KT P6SM FEW100 SCT200
     FM221600 17013KT P6SM VCSH FEW050 SCT150
     FM221800 18014G24KT P6SM SHRA VCTS SCT040CB BKN060
      TEMPO 2219/2223 4SM TSRA BKN025CB
     FM230100 18011KT P6SM -SHRA SCT025 OVC035
     FM230300 20010KT P6SM VCSH SCT025 BKN030=

USA.gov is the U.S. government's official web portal to all federal, state and local government web resources and services.